sensor_id;sensor_type;location;lat;lon;timestamp;pressure;altitude;pressure_sealevel;temperature;humidity
69460;BME280;57182;55.712;37.612;2022-07-05T00:01:07;99780.16;;;23.51;49.25
69460;BME280;57182;55.712;37.612;2022-07-05T00:03:36;99763.66;;;23.39;49.25
69460;BME280;57182;55.712;37.612;2022-07-05T00:06:12;99785.59;;;23.43;49.30
69460;BME280;57182;55.712;37.612;2022-07-05T00:08:40;99768.84;;;23.33;49.85
69460;BME280;57182;55.712;37.612;2022-07-05T00:11:07;99807.25;;;23.56;49.81
69460;BME280;57182;55.712;37.612;2022-07-05T00:13:38;99806.78;;;23.52;49.59
69460;BME280;57182;55.712;37.612;2022-07-05T00:16:12;99791.94;;;23.42;49.78
69460;BME280;57182;55.712;37.612;2022-07-05T00:18:42;99792.28;;;23.39;49.66
69460;BME280;57182;55.712;37.612;2022-07-05T00:21:13;99816.53;;;23.45;50.26
69460;BME280;57182;55.712;37.612;2022-07-05T00:23:42;99790.47;;;23.23;49.91
69460;BME280;57182;55.712;37.612;2022-07-05T00:26:19;99798.69;;;23.22;51.08
69460;BME280;57182;55.712;37.612;2022-07-05T00:28:50;99810.03;;;23.32;51.32
69460;BME280;57182;55.712;37.612;2022-07-05T00:31:18;99807.34;;;23.32;50.15
69460;BME280;57182;55.712;37.612;2022-07-05T00:33:45;99816.56;;;23.29;50.17
69460;BME280;57182;55.712;37.612;2022-07-05T00:36:17;99797.19;;;23.19;50.86
69460;BME280;57182;55.712;37.612;2022-07-05T00:38:47;99813.44;;;23.17;51.30
69460;BME280;57182;55.712;37.612;2022-07-05T00:41:17;99786.06;;;22.99;50.43
69460;BME280;57182;55.712;37.612;2022-07-05T00:43:58;99804.41;;;23.10;51.54
69460;BME280;57182;55.712;37.612;2022-07-05T00:46:28;99783.06;;;22.94;51.19
69460;BME280;57182;55.712;37.612;2022-07-05T00:48:59;99790.75;;;22.97;51.20
69460;BME280;57182;55.712;37.612;2022-07-05T00:51:30;99792.44;;;22.82;51.62
69460;BME280;57182;55.712;37.612;2022-07-05T00:54:00;99789.78;;;22.82;51.49
69460;BME280;57182;55.712;37.612;2022-07-05T00:56:31;99803.34;;;22.89;51.81
69460;BME280;57182;55.712;37.612;2022-07-05T00:59:03;99774.38;;;22.84;50.95
69460;BME280;57182;55.712;37.612;2022-07-05T01:01:31;99806.00;;;22.97;50.89
69460;BME280;57182;55.712;37.612;2022-07-05T01:03:59;99804.31;;;22.96;51.33
69460;BME280;57182;55.712;37.612;2022-07-05T01:06:28;99825.84;;;23.10;51.13
69460;BME280;57182;55.712;37.612;2022-07-05T01:08:58;99804.19;;;22.89;51.34
69460;BME280;57182;55.712;37.612;2022-07-05T01:11:26;99786.75;;;22.85;51.41
69460;BME280;57182;55.712;37.612;2022-07-05T01:13:59;99818.88;;;22.93;51.80
69460;BME280;57182;55.712;37.612;2022-07-05T01:16:31;99813.84;;;22.98;51.33
69460;BME280;57182;55.712;37.612;2022-07-05T01:19:05;99783.44;;;22.83;51.17
69460;BME280;57182;55.712;37.612;2022-07-05T01:21:43;99815.84;;;22.96;52.54
69460;BME280;57182;55.712;37.612;2022-07-05T01:24:13;99814.84;;;22.97;51.96
69460;BME280;57182;55.712;37.612;2022-07-05T01:26:48;99813.03;;;22.82;52.20
69460;BME280;57182;55.712;37.612;2022-07-05T01:29:25;99817.19;;;22.84;52.11
69460;BME280;57182;55.712;37.612;2022-07-05T01:31:55;99793.16;;;22.68;52.29
69460;BME280;57182;55.712;37.612;2022-07-05T01:34:25;99803.03;;;22.76;51.87
69460;BME280;57182;55.712;37.612;2022-07-05T01:36:53;99793.81;;;22.78;51.94
69460;BME280;57182;55.712;37.612;2022-07-05T01:39:21;99791.50;;;22.67;52.53
69460;BME280;57182;55.712;37.612;2022-07-05T01:41:49;99804.88;;;22.67;52.41
69460;BME280;57182;55.712;37.612;2022-07-05T01:44:22;99824.78;;;22.73;53.60
69460;BME280;57182;55.712;37.612;2022-07-05T01:46:55;99819.75;;;22.70;53.49
69460;BME280;57182;55.712;37.612;2022-07-05T01:49:27;99799.53;;;22.67;53.08
69460;BME280;57182;55.712;37.612;2022-07-05T01:51:57;99785.13;;;22.60;53.01
69460;BME280;57182;55.712;37.612;2022-07-05T01:54:31;99789.84;;;22.66;52.60
69460;BME280;57182;55.712;37.612;2022-07-05T01:57:00;99809.19;;;22.84;53.01
69460;BME280;57182;55.712;37.612;2022-07-05T01:59:28;99826.91;;;22.93;52.82
69460;BME280;57182;55.712;37.612;2022-07-05T02:01:55;99785.78;;;22.78;52.41
69460;BME280;57182;55.712;37.612;2022-07-05T02:04:25;99811.50;;;22.87;52.53
69460;BME280;57182;55.712;37.612;2022-07-05T02:06:56;99789.97;;;22.81;53.18
69460;BME280;57182;55.712;37.612;2022-07-05T02:09:24;99796.16;;;22.89;52.64
69460;BME280;57182;55.712;37.612;2022-07-05T02:11:52;99805.34;;;22.87;52.60
69460;BME280;57182;55.712;37.612;2022-07-05T02:14:24;99793.63;;;22.80;52.96
69460;BME280;57182;55.712;37.612;2022-07-05T02:16:53;99793.81;;;22.86;52.85
69460;BME280;57182;55.712;37.612;2022-07-05T02:19:21;99806.31;;;22.94;52.56
69460;BME280;57182;55.712;37.612;2022-07-05T02:21:49;99802.50;;;22.88;52.68
69460;BME280;57182;55.712;37.612;2022-07-05T02:27:38;99799.78;;;22.96;52.34
69460;BME280;57182;55.712;37.612;2022-07-05T02:31:11;99784.91;;;22.94;52.83
69460;BME280;57182;55.712;37.612;2022-07-05T02:34:32;99809.00;;;23.02;52.20
69460;BME280;57182;55.712;37.612;2022-07-05T02:37:10;99827.50;;;23.20;52.76
69460;BME280;57182;55.712;37.612;2022-07-05T02:40:14;99789.09;;;22.96;51.87
69460;BME280;57182;55.712;37.612;2022-07-05T02:43:07;99776.69;;;22.95;51.80
69460;BME280;57182;55.712;37.612;2022-07-05T02:46:36;99778.38;;;22.96;51.84
69460;BME280;57182;55.712;37.612;2022-07-05T02:53:50;99805.75;;;23.23;51.93
69460;BME280;57182;55.712;37.612;2022-07-05T03:00:42;99824.63;;;23.29;50.96
69460;BME280;57182;55.712;37.612;2022-07-05T03:03:31;99796.25;;;23.04;51.04
69460;BME280;57182;55.712;37.612;2022-07-05T03:06:26;99827.31;;;23.21;50.77
69460;BME280;57182;55.712;37.612;2022-07-05T03:09:20;99810.44;;;23.12;50.83
69460;BME280;57182;55.712;37.612;2022-07-05T03:13:02;99818.44;;;23.21;51.20
69460;BME280;57182;55.712;37.612;2022-07-05T03:16:24;99799.47;;;22.99;51.40
69460;BME280;57182;55.712;37.612;2022-07-05T03:19:08;99810.81;;;23.09;50.97
69460;BME280;57182;55.712;37.612;2022-07-05T03:21:47;99816.09;;;23.17;50.94
69460;BME280;57182;55.712;37.612;2022-07-05T03:24:22;99820.63;;;23.25;51.30
69460;BME280;57182;55.712;37.612;2022-07-05T03:27:00;99848.03;;;23.35;50.88
69460;BME280;57182;55.712;37.612;2022-07-05T03:30:12;99836.19;;;23.22;52.00
69460;BME280;57182;55.712;37.612;2022-07-05T03:33:24;99860.63;;;23.27;51.12
69460;BME280;57182;55.712;37.612;2022-07-05T03:36:01;99817.28;;;23.15;51.12
69460;BME280;57182;55.712;37.612;2022-07-05T03:39:17;99827.16;;;23.23;52.19
69460;BME280;57182;55.712;37.612;2022-07-05T03:43:02;99801.06;;;23.16;51.43
69460;BME280;57182;55.712;37.612;2022-07-05T03:46:19;99841.13;;;23.49;51.57
69460;BME280;57182;55.712;37.612;2022-07-05T03:49:03;99812.38;;;23.35;50.81
69460;BME280;57182;55.712;37.612;2022-07-05T03:51:48;99834.44;;;23.53;51.29
69460;BME280;57182;55.712;37.612;2022-07-05T03:54:45;99837.19;;;23.67;50.63
69460;BME280;57182;55.712;37.612;2022-07-05T03:57:26;99828.31;;;23.67;50.40
69460;BME280;57182;55.712;37.612;2022-07-05T03:59:59;99820.41;;;23.73;50.05
69460;BME280;57182;55.712;37.612;2022-07-05T04:02:54;99841.22;;;23.94;50.45
69460;BME280;57182;55.712;37.612;2022-07-05T04:06:32;99867.44;;;24.15;49.26
69460;BME280;57182;55.712;37.612;2022-07-05T04:09:56;99828.59;;;24.03;49.98
69460;BME280;57182;55.712;37.612;2022-07-05T04:13:04;99851.94;;;24.25;49.81
69460;BME280;57182;55.712;37.612;2022-07-05T04:15:39;99839.19;;;24.27;48.84
69460;BME280;57182;55.712;37.612;2022-07-05T04:18:20;99864.81;;;24.52;48.15
69460;BME280;57182;55.712;37.612;2022-07-05T04:20:58;99849.91;;;24.50;47.85
69460;BME280;57182;55.712;37.612;2022-07-05T04:23:43;99831.06;;;24.58;47.21
69460;BME280;57182;55.712;37.612;2022-07-05T04:26:51;99825.28;;;24.61;46.86
69460;BME280;57182;55.712;37.612;2022-07-05T04:30:24;99847.59;;;24.84;46.33
69460;BME280;57182;55.712;37.612;2022-07-05T04:32:55;99845.66;;;24.78;45.81
69460;BME280;57182;55.712;37.612;2022-07-05T04:35:25;99850.81;;;24.79;45.13
69460;BME280;57182;55.712;37.612;2022-07-05T04:37:55;99834.59;;;24.73;45.31
69460;BME280;57182;55.712;37.612;2022-07-05T04:40:23;99848.91;;;24.88;45.53
69460;BME280;57182;55.712;37.612;2022-07-05T04:42:51;99857.16;;;25.01;45.21
69460;BME280;57182;55.712;37.612;2022-07-05T04:45:29;99845.13;;;25.12;45.14
69460;BME280;57182;55.712;37.612;2022-07-05T04:48:05;99859.47;;;25.33;45.04
69460;BME280;57182;55.712;37.612;2022-07-05T04:51:43;99869.03;;;25.50;44.00
69460;BME280;57182;55.712;37.612;2022-07-05T05:12:16;99846.34;;;26.46;42.41
69460;BME280;57182;55.712;37.612;2022-07-05T05:29:03;99832.94;;;27.42;40.29
69460;BME280;57182;55.712;37.612;2022-07-05T05:36:53;99856.59;;;28.00;39.36
69460;BME280;57182;55.712;37.612;2022-07-05T05:39:23;99818.66;;;28.02;38.57
69460;BME280;57182;55.712;37.612;2022-07-05T05:41:51;99855.28;;;28.44;38.85
69460;BME280;57182;55.712;37.612;2022-07-05T05:44:24;99830.34;;;28.55;38.49
69460;BME280;57182;55.712;37.612;2022-07-05T05:46:56;99848.84;;;28.91;38.01
69460;BME280;57182;55.712;37.612;2022-07-05T05:49:24;99815.75;;;29.21;37.48
69460;BME280;57182;55.712;37.612;2022-07-05T05:51:59;99832.47;;;30.07;37.04
69460;BME280;57182;55.712;37.612;2022-07-05T05:54:28;99838.94;;;30.87;35.87
69460;BME280;57182;55.712;37.612;2022-07-05T05:56:58;99815.75;;;31.52;34.34
69460;BME280;57182;55.712;37.612;2022-07-05T05:59:31;99806.94;;;32.16;33.79
69460;BME280;57182;55.712;37.612;2022-07-05T06:02:45;99840.66;;;33.14;30.27
69460;BME280;57182;55.712;37.612;2022-07-05T06:05:17;99837.31;;;33.47;30.82
69460;BME280;57182;55.712;37.612;2022-07-05T06:07:53;99812.88;;;33.92;30.13
69460;BME280;57182;55.712;37.612;2022-07-05T06:10:29;99823.22;;;34.35;28.78
69460;BME280;57182;55.712;37.612;2022-07-05T06:13:01;99828.13;;;34.83;29.45
69460;BME280;57182;55.712;37.612;2022-07-05T06:15:39;99813.44;;;35.22;27.62
69460;BME280;57182;55.712;37.612;2022-07-05T06:18:10;99829.22;;;35.58;27.83
69460;BME280;57182;55.712;37.612;2022-07-05T06:20:49;99815.78;;;35.13;27.64
69460;BME280;57182;55.712;37.612;2022-07-05T06:23:17;99814.16;;;35.56;27.54
69460;BME280;57182;55.712;37.612;2022-07-05T06:25:53;99830.63;;;36.09;27.17
69460;BME280;57182;55.712;37.612;2022-07-05T06:28:25;99825.25;;;36.46;26.42
69460;BME280;57182;55.712;37.612;2022-07-05T06:30:58;99840.75;;;35.87;26.79
69460;BME280;57182;55.712;37.612;2022-07-05T06:33:36;99811.94;;;35.53;27.20
69460;BME280;57182;55.712;37.612;2022-07-05T06:36:06;99814.41;;;35.76;26.31
69460;BME280;57182;55.712;37.612;2022-07-05T06:38:36;99817.09;;;36.24;26.34
69460;BME280;57182;55.712;37.612;2022-07-05T06:41:04;99835.44;;;36.50;25.49
69460;BME280;57182;55.712;37.612;2022-07-05T06:43:34;99841.59;;;36.73;25.28
69460;BME280;57182;55.712;37.612;2022-07-05T06:46:09;99826.41;;;36.23;24.86
69460;BME280;57182;55.712;37.612;2022-07-05T06:48:48;99820.72;;;36.56;24.85
69460;BME280;57182;55.712;37.612;2022-07-05T06:51:23;99799.75;;;36.40;24.80
69460;BME280;57182;55.712;37.612;2022-07-05T06:53:53;99833.38;;;36.68;24.35
69460;BME280;57182;55.712;37.612;2022-07-05T06:56:45;99799.03;;;36.87;23.27
69460;BME280;57182;55.712;37.612;2022-07-05T06:59:25;99801.47;;;37.30;23.48
69460;BME280;57182;55.712;37.612;2022-07-05T07:02:17;99798.97;;;37.24;23.64
69460;BME280;57182;55.712;37.612;2022-07-05T07:04:58;99817.50;;;37.58;23.66
69460;BME280;57182;55.712;37.612;2022-07-05T07:07:38;99822.00;;;37.95;23.27
69460;BME280;57182;55.712;37.612;2022-07-05T07:10:33;99788.06;;;37.39;23.29
69460;BME280;57182;55.712;37.612;2022-07-05T07:13:04;99811.41;;;37.41;23.16
69460;BME280;57182;55.712;37.612;2022-07-05T07:15:36;99791.16;;;37.42;23.37
69460;BME280;57182;55.712;37.612;2022-07-05T07:18:34;99793.56;;;37.39;23.54
69460;BME280;57182;55.712;37.612;2022-07-05T07:21:26;99795.72;;;37.99;23.01
69460;BME280;57182;55.712;37.612;2022-07-05T07:24:04;99790.25;;;38.29;22.71
69460;BME280;57182;55.712;37.612;2022-07-05T07:26:38;99787.22;;;38.25;22.43
69460;BME280;57182;55.712;37.612;2022-07-05T07:29:35;99791.59;;;37.96;22.94
69460;BME280;57182;55.712;37.612;2022-07-05T07:32:14;99793.72;;;37.69;23.39
69460;BME280;57182;55.712;37.612;2022-07-05T07:34:49;99812.63;;;37.80;23.20
69460;BME280;57182;55.712;37.612;2022-07-05T07:37:22;99798.75;;;38.02;22.79
69460;BME280;57182;55.712;37.612;2022-07-05T07:39:55;99777.47;;;37.47;23.53
69460;BME280;57182;55.712;37.612;2022-07-05T07:42:27;99789.44;;;36.84;24.08
69460;BME280;57182;55.712;37.612;2022-07-05T07:45:15;99796.81;;;36.15;25.16
69460;BME280;57182;55.712;37.612;2022-07-05T07:47:59;99781.78;;;36.49;24.53
69460;BME280;57182;55.712;37.612;2022-07-05T07:50:44;99816.13;;;36.67;24.34
69460;BME280;57182;55.712;37.612;2022-07-05T07:53:33;99798.00;;;36.98;23.32
69460;BME280;57182;55.712;37.612;2022-07-05T07:56:01;99789.28;;;37.63;22.74
69460;BME280;57182;55.712;37.612;2022-07-05T07:58:40;99795.34;;;37.75;23.26
69460;BME280;57182;55.712;37.612;2022-07-05T08:01:17;99802.31;;;37.31;23.39
69460;BME280;57182;55.712;37.612;2022-07-05T08:03:51;99805.22;;;37.14;23.12
69460;BME280;57182;55.712;37.612;2022-07-05T08:06:27;99814.78;;;37.06;23.77
69460;BME280;57182;55.712;37.612;2022-07-05T08:09:06;99803.19;;;37.46;23.30
69460;BME280;57182;55.712;37.612;2022-07-05T08:11:44;99776.97;;;37.65;22.89
69460;BME280;57182;55.712;37.612;2022-07-05T08:14:15;99787.78;;;38.07;22.61
69460;BME280;57182;55.712;37.612;2022-07-05T08:16:48;99806.19;;;38.42;22.34
69460;BME280;57182;55.712;37.612;2022-07-05T08:19:20;99786.97;;;38.47;21.97
69460;BME280;57182;55.712;37.612;2022-07-05T08:22:09;99799.28;;;37.94;21.82
69460;BME280;57182;55.712;37.612;2022-07-05T08:24:38;99773.78;;;38.24;21.97
69460;BME280;57182;55.712;37.612;2022-07-05T08:27:39;99789.06;;;37.79;22.24
69460;BME280;57182;55.712;37.612;2022-07-05T08:30:10;99783.59;;;36.71;23.32
69460;BME280;57182;55.712;37.612;2022-07-05T08:32:45;99765.41;;;35.48;24.23
69460;BME280;57182;55.712;37.612;2022-07-05T08:35:22;99776.94;;;34.73;25.28
69460;BME280;57182;55.712;37.612;2022-07-05T08:39:07;99794.28;;;35.00;25.92
69460;BME280;57182;55.712;37.612;2022-07-05T08:41:43;99774.25;;;35.76;24.96
69460;BME280;57182;55.712;37.612;2022-07-05T08:44:22;99778.63;;;36.31;24.49
69460;BME280;57182;55.712;37.612;2022-07-05T08:47:09;99768.81;;;37.18;23.71
69460;BME280;57182;55.712;37.612;2022-07-05T08:49:43;99747.25;;;37.32;23.45
69460;BME280;57182;55.712;37.612;2022-07-05T08:52:12;99774.63;;;37.27;23.74
69460;BME280;57182;55.712;37.612;2022-07-05T08:54:43;99764.47;;;37.17;23.83
69460;BME280;57182;55.712;37.612;2022-07-05T08:57:16;99774.75;;;37.52;24.09
69460;BME280;57182;55.712;37.612;2022-07-05T08:59:54;99771.22;;;37.67;23.23
69460;BME280;57182;55.712;37.612;2022-07-05T09:02:27;99782.56;;;38.11;22.50
69460;BME280;57182;55.712;37.612;2022-07-05T09:04:56;99744.72;;;38.58;21.93
69460;BME280;57182;55.712;37.612;2022-07-05T09:07:34;99757.09;;;38.46;22.30
69460;BME280;57182;55.712;37.612;2022-07-05T09:10:06;99746.13;;;38.41;21.68
69460;BME280;57182;55.712;37.612;2022-07-05T09:12:41;99747.03;;;37.49;22.83
69460;BME280;57182;55.712;37.612;2022-07-05T09:15:13;99759.31;;;36.79;23.45
69460;BME280;57182;55.712;37.612;2022-07-05T09:17:48;99732.88;;;36.95;23.61
69460;BME280;57182;55.712;37.612;2022-07-05T09:20:39;99745.81;;;37.14;23.37
69460;BME280;57182;55.712;37.612;2022-07-05T09:23:21;99769.06;;;37.79;23.14
69460;BME280;57182;55.712;37.612;2022-07-05T09:29:18;99742.38;;;39.11;21.93
69460;BME280;57182;55.712;37.612;2022-07-05T09:32:24;99748.31;;;39.48;22.10
69460;BME280;57182;55.712;37.612;2022-07-05T09:35:19;99733.72;;;38.08;23.04
69460;BME280;57182;55.712;37.612;2022-07-05T09:37:49;99725.09;;;36.82;24.04
69460;BME280;57182;55.712;37.612;2022-07-05T09:40:19;99737.28;;;35.47;26.11
69460;BME280;57182;55.712;37.612;2022-07-05T09:42:51;99750.38;;;34.63;27.18
69460;BME280;57182;55.712;37.612;2022-07-05T09:45:27;99722.22;;;33.80;27.95
69460;BME280;57182;55.712;37.612;2022-07-05T09:47:57;99726.06;;;33.39;28.25
69460;BME280;57182;55.712;37.612;2022-07-05T09:50:49;99735.34;;;33.15;28.76
69460;BME280;57182;55.712;37.612;2022-07-05T09:53:49;99746.03;;;32.81;29.74
69460;BME280;57182;55.712;37.612;2022-07-05T09:56:46;99754.00;;;33.34;28.85
69460;BME280;57182;55.712;37.612;2022-07-05T09:59:19;99739.53;;;33.74;28.14
69460;BME280;57182;55.712;37.612;2022-07-05T10:01:50;99714.31;;;33.95;28.36
69460;BME280;57182;55.712;37.612;2022-07-05T10:04:26;99742.94;;;34.26;27.74
69460;BME280;57182;55.712;37.612;2022-07-05T10:06:55;99719.22;;;33.65;29.18
69460;BME280;57182;55.712;37.612;2022-07-05T10:09:40;99702.44;;;33.56;28.93
69460;BME280;57182;55.712;37.612;2022-07-05T10:12:27;99713.66;;;33.88;28.10
69460;BME280;57182;55.712;37.612;2022-07-05T10:19:12;99722.59;;;33.15;29.64
69460;BME280;57182;55.712;37.612;2022-07-05T10:21:50;99716.22;;;33.10;29.20
69460;BME280;57182;55.712;37.612;2022-07-05T10:24:41;99704.38;;;33.72;28.36
69460;BME280;57182;55.712;37.612;2022-07-05T10:27:39;99694.66;;;33.76;28.03
69460;BME280;57182;55.712;37.612;2022-07-05T10:30:24;99713.34;;;34.01;28.01
69460;BME280;57182;55.712;37.612;2022-07-05T10:33:10;99699.00;;;34.05;28.17
69460;BME280;57182;55.712;37.612;2022-07-05T10:35:51;99688.09;;;34.05;28.47
69460;BME280;57182;55.712;37.612;2022-07-05T10:38:38;99682.22;;;33.52;29.01
69460;BME280;57182;55.712;37.612;2022-07-05T10:41:09;99697.66;;;33.35;29.30
69460;BME280;57182;55.712;37.612;2022-07-05T10:43:44;99710.06;;;33.42;29.39
69460;BME280;57182;55.712;37.612;2022-07-05T10:46:56;99698.38;;;32.90;29.94
69460;BME280;57182;55.712;37.612;2022-07-05T10:50:05;99701.34;;;32.31;32.81
69460;BME280;57182;55.712;37.612;2022-07-05T10:53:11;99700.84;;;31.58;33.65
69460;BME280;57182;55.712;37.612;2022-07-05T10:58:49;99724.75;;;30.77;35.94
69460;BME280;57182;55.712;37.612;2022-07-05T11:01:37;99721.06;;;30.53;36.17
69460;BME280;57182;55.712;37.612;2022-07-05T11:04:23;99713.50;;;30.12;37.63
69460;BME280;57182;55.712;37.612;2022-07-05T11:07:07;99709.84;;;29.69;38.74
69460;BME280;57182;55.712;37.612;2022-07-05T11:10:13;99725.63;;;29.34;40.27
69460;BME280;57182;55.712;37.612;2022-07-05T11:12:44;99708.00;;;29.25;39.46
69460;BME280;57182;55.712;37.612;2022-07-05T11:15:22;99723.75;;;29.35;40.47
69460;BME280;57182;55.712;37.612;2022-07-05T11:18:13;99716.66;;;29.34;41.89
69460;BME280;57182;55.712;37.612;2022-07-05T11:21:18;99721.63;;;29.43;41.31
69460;BME280;57182;55.712;37.612;2022-07-05T11:24:27;99706.84;;;30.76;39.55
69460;BME280;57182;55.712;37.612;2022-07-05T11:27:28;99682.81;;;32.16;36.23
69460;BME280;57182;55.712;37.612;2022-07-05T11:30:00;99686.69;;;33.58;34.77
69460;BME280;57182;55.712;37.612;2022-07-05T11:32:39;99695.75;;;34.42;32.01
69460;BME280;57182;55.712;37.612;2022-07-05T11:35:59;99685.16;;;34.84;31.45
69460;BME280;57182;55.712;37.612;2022-07-05T11:39:14;99718.50;;;33.86;32.42
69460;BME280;57182;55.712;37.612;2022-07-05T11:42:01;99733.72;;;32.32;34.73
69460;BME280;57182;55.712;37.612;2022-07-05T11:44:32;99725.56;;;31.80;35.42
69460;BME280;57182;55.712;37.612;2022-07-05T11:47:20;99729.41;;;32.02;34.84
69460;BME280;57182;55.712;37.612;2022-07-05T11:49:58;99691.34;;;31.19;35.65
69460;BME280;57182;55.712;37.612;2022-07-05T11:52:33;99707.97;;;30.50;37.24
69460;BME280;57182;55.712;37.612;2022-07-05T11:55:09;99682.66;;;29.88;38.38
69460;BME280;57182;55.712;37.612;2022-07-05T11:57:50;99680.94;;;29.63;38.46
69460;BME280;57182;55.712;37.612;2022-07-05T12:00:26;99700.13;;;29.55;38.45
69460;BME280;57182;55.712;37.612;2022-07-05T12:03:15;99741.53;;;29.55;38.18
69460;BME280;57182;55.712;37.612;2022-07-05T12:05:52;99719.97;;;29.42;39.06
69460;BME280;57182;55.712;37.612;2022-07-05T12:08:25;99688.34;;;29.74;38.89
69460;BME280;57182;55.712;37.612;2022-07-05T12:11:03;99691.44;;;30.09;37.91
69460;BME280;57182;55.712;37.612;2022-07-05T12:13:53;99735.59;;;30.77;37.59
69460;BME280;57182;55.712;37.612;2022-07-05T12:16:33;99716.06;;;30.93;37.36
69460;BME280;57182;55.712;37.612;2022-07-05T12:19:01;99730.00;;;31.62;36.45
69460;BME280;57182;55.712;37.612;2022-07-05T12:21:33;99685.47;;;31.93;35.72
69460;BME280;57182;55.712;37.612;2022-07-05T12:24:10;99712.38;;;31.83;35.64
69460;BME280;57182;55.712;37.612;2022-07-05T12:27:17;99716.72;;;31.84;35.07
69460;BME280;57182;55.712;37.612;2022-07-05T12:29:44;99687.50;;;31.38;35.79
69460;BME280;57182;55.712;37.612;2022-07-05T12:32:22;99683.91;;;31.15;35.92
69460;BME280;57182;55.712;37.612;2022-07-05T12:35:49;99719.72;;;30.80;37.16
69460;BME280;57182;55.712;37.612;2022-07-05T12:38:20;99712.72;;;30.73;36.78
69460;BME280;57182;55.712;37.612;2022-07-05T12:41:20;99718.97;;;30.30;38.95
69460;BME280;57182;55.712;37.612;2022-07-05T12:43:58;99708.03;;;29.87;38.49
69460;BME280;57182;55.712;37.612;2022-07-05T12:50:47;99739.63;;;29.24;41.25
69460;BME280;57182;55.712;37.612;2022-07-05T12:53:45;99717.28;;;28.78;41.84
69460;BME280;57182;55.712;37.612;2022-07-05T12:56:58;99782.13;;;28.78;42.29
69460;BME280;57182;55.712;37.612;2022-07-05T12:59:59;99808.34;;;28.51;42.49
69460;BME280;57182;55.712;37.612;2022-07-05T13:03:29;99821.06;;;27.77;44.96
69460;BME280;57182;55.712;37.612;2022-07-05T13:13:21;99791.03;;;26.22;47.21
69460;BME280;57182;55.712;37.612;2022-07-05T13:16:23;99811.41;;;26.31;46.73
69460;BME280;57182;55.712;37.612;2022-07-05T13:19:47;99783.63;;;26.24;45.45
69460;BME280;57182;55.712;37.612;2022-07-05T13:22:24;99802.81;;;26.42;46.02
69460;BME280;57182;55.712;37.612;2022-07-05T13:26:00;99804.69;;;26.42;46.55
69460;BME280;57182;55.712;37.612;2022-07-05T13:28:54;99793.94;;;26.20;45.71
69460;BME280;57182;55.712;37.612;2022-07-05T13:31:27;99844.34;;;26.33;45.12
69460;BME280;57182;55.712;37.612;2022-07-05T13:34:12;99823.53;;;26.20;45.40
69460;BME280;57182;55.712;37.612;2022-07-05T13:37:02;99816.06;;;26.01;46.35
69460;BME280;57182;55.712;37.612;2022-07-05T13:39:34;99811.00;;;25.92;45.93
69460;BME280;57182;55.712;37.612;2022-07-05T13:42:17;99798.44;;;25.78;45.54
69460;BME280;57182;55.712;37.612;2022-07-05T13:45:06;99832.19;;;25.80;46.13
69460;BME280;57182;55.712;37.612;2022-07-05T13:47:37;99833.66;;;25.83;45.81
69460;BME280;57182;55.712;37.612;2022-07-05T13:50:09;99822.13;;;25.68;45.46
69460;BME280;57182;55.712;37.612;2022-07-05T13:53:13;99844.44;;;25.83;45.66
69460;BME280;57182;55.712;37.612;2022-07-05T13:55:50;99796.09;;;25.53;47.05
69460;BME280;57182;55.712;37.612;2022-07-05T13:58:23;99805.53;;;25.35;49.23
69460;BME280;57182;55.712;37.612;2022-07-05T14:00:56;99798.88;;;25.01;50.27
69460;BME280;57182;55.712;37.612;2022-07-05T14:03:24;99827.97;;;24.98;51.86
69460;BME280;57182;55.712;37.612;2022-07-05T14:10:26;99805.84;;;24.59;51.96
69460;BME280;57182;55.712;37.612;2022-07-05T14:12:53;99815.31;;;24.55;52.90
69460;BME280;57182;55.712;37.612;2022-07-05T14:15:25;99816.81;;;24.34;56.30
69460;BME280;57182;55.712;37.612;2022-07-05T14:18:02;99808.53;;;24.21;53.74
69460;BME280;57182;55.712;37.612;2022-07-05T14:20:37;99815.56;;;24.22;54.55
69460;BME280;57182;55.712;37.612;2022-07-05T14:23:04;99826.28;;;24.22;53.89
69460;BME280;57182;55.712;37.612;2022-07-05T14:25:36;99830.84;;;24.22;54.13
69460;BME280;57182;55.712;37.612;2022-07-05T14:31:30;99841.44;;;23.85;54.77
69460;BME280;57182;55.712;37.612;2022-07-05T14:34:04;99828.84;;;23.62;55.62
69460;BME280;57182;55.712;37.612;2022-07-05T14:37:03;99857.50;;;23.62;60.05
69460;BME280;57182;55.712;37.612;2022-07-05T14:39:58;99866.94;;;23.34;58.60
69460;BME280;57182;55.712;37.612;2022-07-05T14:42:39;99861.16;;;23.14;59.94
69460;BME280;57182;55.712;37.612;2022-07-05T14:45:08;99843.16;;;22.76;61.41
69460;BME280;57182;55.712;37.612;2022-07-05T14:47:42;99854.34;;;22.79;65.08
69460;BME280;57182;55.712;37.612;2022-07-05T14:50:14;99847.84;;;22.58;65.60
69460;BME280;57182;55.712;37.612;2022-07-05T14:52:46;99866.22;;;22.44;65.32
69460;BME280;57182;55.712;37.612;2022-07-05T14:55:18;99858.38;;;22.43;65.38
69460;BME280;57182;55.712;37.612;2022-07-05T14:57:48;99850.88;;;22.30;67.56
69460;BME280;57182;55.712;37.612;2022-07-05T15:00:17;99893.47;;;22.32;67.62
69460;BME280;57182;55.712;37.612;2022-07-05T15:02:50;99898.13;;;22.14;68.22
69460;BME280;57182;55.712;37.612;2022-07-05T15:08:52;99975.28;;;22.01;68.40
69460;BME280;57182;55.712;37.612;2022-07-05T15:11:25;99947.06;;;21.72;67.49
69460;BME280;57182;55.712;37.612;2022-07-05T15:13:58;99986.13;;;21.91;68.62
69460;BME280;57182;55.712;37.612;2022-07-05T15:17:01;99988.84;;;21.73;73.55
69460;BME280;57182;55.712;37.612;2022-07-05T15:19:36;99982.53;;;21.49;70.44
69460;BME280;57182;55.712;37.612;2022-07-05T15:22:13;99959.59;;;21.12;71.84
69460;BME280;57182;55.712;37.612;2022-07-05T15:24:53;99981.47;;;21.16;72.77
69460;BME280;57182;55.712;37.612;2022-07-05T15:27:44;99945.53;;;20.85;73.88